Time;durP1;ratioP1;P1;durP2;ratioP2;P2;SDS_P1;SDS_P2;PMS_P1;PMS_P2;Temp;Humidity;BMP_temperature;BMP_pressure;BME280_temperature;BME280_humidity;BME280_pressure;Samples;Min_cycle;Max_cycle;Signal;HPM_P1;HPM_P2
2022/03/23 00:00:34;;;;;;;13.18;4.80;;;;;;;3.41;44.08;101184.25;5100253;28;20052;-79
2022/03/23 00:03:05;;;;;;;11.90;4.50;;;;;;;3.47;44.51;101204.38;5101401;28;20059;-80
2022/03/23 00:05:32;;;;;;;9.65;4.47;;;;;;;3.39;44.50;101185.00;5101477;28;20075;-81
2022/03/23 00:08:00;;;;;;;9.57;4.43;;;;;;;3.48;44.58;101208.72;5105536;28;20048;-80
2022/03/23 00:10:27;;;;;;;9.35;4.65;;;;;;;3.44;44.42;101193.84;5097540;28;20072;-79
2022/03/23 00:12:57;;;;;;;10.00;4.18;;;;;;;3.44;44.63;101207.69;5096780;28;20058;-79
2022/03/23 00:15:24;;;;;;;10.38;4.68;;;;;;;3.34;44.44;101182.16;5096268;28;20056;-78
2022/03/23 00:17:51;;;;;;;7.20;4.38;;;;;;;3.45;44.36;101190.50;5095995;28;20066;-79
2022/03/23 00:20:18;;;;;;;11.05;4.40;;;;;;;3.41;44.65;101188.53;5096109;28;20087;-78
2022/03/23 00:22:51;;;;;;;9.63;4.70;;;;;;;3.32;45.20;101180.31;5096388;28;20056;-78
2022/03/23 00:25:18;;;;;;;14.05;4.22;;;;;;;3.23;45.03;101172.97;5096201;28;20514;-78
2022/03/23 00:27:46;;;;;;;12.98;4.43;;;;;;;3.31;44.89;101200.06;5096276;28;20059;-78
2022/03/23 00:30:13;;;;;;;10.45;4.35;;;;;;;3.19;45.41;101169.31;5097723;28;20048;-80
2022/03/23 00:32:40;;;;;;;8.98;3.47;;;;;;;3.27;44.83;101186.13;5097087;28;20052;-79
2022/03/23 00:35:07;;;;;;;9.07;4.43;;;;;;;3.10;45.15;101144.69;5096241;28;20616;-80
2022/03/23 00:37:34;;;;;;;12.65;4.15;;;;;;;3.26;45.22;101184.31;5095858;28;20056;-79
2022/03/23 00:40:01;;;;;;;8.45;4.20;;;;;;;3.09;45.46;101185.09;5094758;28;20117;-79
2022/03/23 00:42:28;;;;;;;9.05;3.92;;;;;;;3.21;45.59;101178.03;5077523;28;20430;-79
2022/03/23 00:44:57;;;;;;;8.18;4.35;;;;;;;3.23;45.38;101185.88;5098362;28;20052;-80
2022/03/23 00:47:27;;;;;;;9.00;3.80;;;;;;;3.19;45.67;101171.00;5096224;28;20432;-80
2022/03/23 00:49:54;;;;;;;9.90;4.30;;;;;;;3.19;45.65;101178.75;5095567;28;20147;-79
2022/03/23 00:52:21;;;;;;;9.88;4.07;;;;;;;3.04;45.46;101166.78;5094538;28;20051;-78
2022/03/23 00:54:48;;;;;;;8.27;4.05;;;;;;;2.98;45.67;101142.34;5094899;28;20124;-78
2022/03/23 00:57:15;;;;;;;8.48;4.25;;;;;;;3.16;45.91;101171.75;5095451;28;20428;-79
2022/03/23 00:59:42;;;;;;;6.60;3.72;;;;;;;3.16;45.92;101178.56;5095413;28;20592;-81
2022/03/23 01:02:10;;;;;;;9.88;4.32;;;;;;;2.94;46.31;101143.84;5095503;28;20056;-77
2022/03/23 01:04:37;;;;;;;6.78;4.10;;;;;;;3.05;46.20;101167.66;5095245;28;20418;-78
2022/03/23 01:07:04;;;;;;;7.43;3.70;;;;;;;3.09;46.49;101164.44;5087163;28;20048;-78
2022/03/23 01:09:31;;;;;;;9.00;4.22;;;;;;;2.80;46.29;101124.16;5079075;28;20053;-80
2022/03/23 01:11:59;;;;;;;9.27;4.10;;;;;;;2.97;46.63;101167.28;5075329;28;20536;-80
2022/03/23 01:14:26;;;;;;;10.48;4.10;;;;;;;3.00;46.48;101179.44;5074070;28;20068;-79
2022/03/23 01:16:54;;;;;;;7.47;4.50;;;;;;;2.95;46.73;101166.28;5075845;28;20135;-81
2022/03/23 01:19:27;;;;;;;8.63;4.30;;;;;;;2.93;46.69;101167.91;5073756;28;20071;-78
2022/03/23 01:21:55;;;;;;;10.98;4.28;;;;;;;2.87;46.81;101162.41;5057196;28;20052;-80
2022/03/23 01:24:22;;;;;;;8.25;4.50;;;;;;;2.83;46.95;101166.50;5075015;28;20048;-79
2022/03/23 01:26:49;;;;;;;8.75;4.30;;;;;;;2.55;46.82;101112.47;5074931;28;20067;-81
2022/03/23 01:29:17;;;;;;;9.40;3.83;;;;;;;2.77;47.24;101162.69;5073927;28;20110;-79
2022/03/23 01:31:46;;;;;;;7.32;3.90;;;;;;;2.70;47.38;101161.47;5074702;28;20067;-78
2022/03/23 01:34:14;;;;;;;7.97;4.05;;;;;;;2.73;47.32;101165.91;5074848;28;20079;-78
2022/03/23 01:36:41;;;;;;;15.00;4.32;;;;;;;2.42;47.55;101099.69;5074513;28;20098;-78
2022/03/23 01:39:08;;;;;;;8.57;4.28;;;;;;;2.65;47.50;101155.16;5074701;28;20080;-78
2022/03/23 01:41:37;;;;;;;6.93;3.85;;;;;;;2.69;47.70;101153.63;5074662;28;20068;-77
2022/03/23 01:44:24;;;;;;;7.30;3.75;;;;;;;2.48;47.61;101117.22;5075227;28;20045;-79
2022/03/23 01:47:11;;;;;;;10.32;4.07;;;;;;;2.60;47.76;101152.34;5074888;28;20052;-79
2022/03/23 01:49:40;;;;;;;8.98;4.93;;;;;;;2.54;47.79;101133.94;5087775;28;20433;-78
2022/03/23 01:52:10;;;;;;;10.02;3.85;;;;;;;2.48;47.96;101140.44;5094450;28;20143;-79
2022/03/23 01:54:38;;;;;;;7.65;3.88;;;;;;;2.39;48.48;101117.59;5081718;28;20103;-80
2022/03/23 01:57:08;;;;;;;9.52;4.00;;;;;;;2.45;48.06;101135.97;5073555;28;20080;-80
2022/03/23 01:59:36;;;;;;;14.65;4.75;;;;;;;2.50;48.31;101144.88;5073968;28;20048;-80
2022/03/23 02:02:04;;;;;;;9.13;3.92;;;;;;;2.51;48.15;101140.59;5073044;28;20055;-80
2022/03/23 02:04:36;;;;;;;8.25;4.30;;;;;;;2.48;48.37;101135.28;5095005;28;20052;-81
2022/03/23 02:07:04;;;;;;;7.35;4.25;;;;;;;2.21;48.46;101097.69;5081482;28;20509;-80
2022/03/23 02:09:32;;;;;;;13.18;4.40;;;;;;;2.49;48.58;101152.53;5109727;28;20027;-77
2022/03/23 02:12:08;;;;;;;10.55;4.50;;;;;;;2.50;48.69;101149.16;5108283;28;20027;-79
2022/03/23 02:14:35;;;;;;;;;;;;;;;2.35;48.07;101142.31;5095292;28;20064;-79
2022/03/23 02:17:03;;;;;;;7.65;4.13;;;;;;;2.40;48.09;101152.88;5093906;28;19967;-79
2022/03/23 02:19:32;;;;;;;12.80;4.10;;;;;;;2.21;48.65;101125.16;5092748;28;20052;-79
2022/03/23 02:21:59;;;;;;;9.52;3.92;;;;;;;2.30;48.58;101125.66;5092699;28;20064;-79
2022/03/23 02:24:28;;;;;;;10.40;4.07;;;;;;;2.41;48.46;101134.03;5092833;28;20143;-79
2022/03/23 02:26:57;;;;;;;10.88;3.97;;;;;;;2.37;48.97;101132.09;5093469;28;20433;-80
2022/03/23 02:29:29;;;;;;;13.00;3.90;;;;;;;2.34;48.57;101129.31;5093760;28;20047;-80
2022/03/23 02:31:56;;;;;;;8.77;3.83;;;;;;;2.31;49.04;101135.19;5093608;28;20468;-79
2022/03/23 02:34:25;;;;;;;9.90;3.80;;;;;;;2.15;48.83;101099.94;5093848;28;20044;-80
2022/03/23 02:36:56;;;;;;;9.40;3.78;;;;;;;2.31;48.86;101142.06;5094096;28;20528;-80
2022/03/23 02:39:25;;;;;;;8.40;4.00;;;;;;;2.14;49.22;101095.56;5093757;28;20497;-78
2022/03/23 02:41:56;;;;;;;9.80;4.03;;;;;;;2.31;49.30;101134.31;5093611;28;20056;-80
2022/03/23 02:44:25;;;;;;;6.03;3.22;;;;;;;2.04;49.30;101089.00;5093580;28;20048;-80
2022/03/23 02:46:53;;;;;;;10.60;4.18;;;;;;;2.21;49.40;101128.63;5080553;28;20079;-80
2022/03/23 02:49:20;;;;;;;10.30;4.10;;;;;;;2.17;49.34;101121.53;5093306;28;20543;-80
2022/03/23 02:51:48;;;;;;;25.63;6.35;;;;;;;2.24;49.77;101126.22;5093369;28;20146;-79
2022/03/23 03:03:36;;;;;;;7.68;4.13;;;;;;;2.22;49.75;101122.69;5093306;28;20056;-80
2022/03/23 03:06:06;;;;;;;8.45;4.30;;;;;;;2.05;49.44;101088.19;5093007;28;20056;-80
2022/03/23 03:08:45;;;;;;;11.47;4.20;;;;;;;2.28;49.44;101135.03;5093127;28;20050;-81
2022/03/23 03:11:12;;;;;;;10.88;4.88;;;;;;;2.21;49.39;101126.03;5093283;28;20381;-80
2022/03/23 03:13:40;;;;;;;10.73;4.18;;;;;;;2.29;49.62;101118.75;5093328;28;20076;-79
2022/03/23 03:16:07;;;;;;;9.70;4.53;;;;;;;2.25;49.92;101128.00;5093180;28;20104;-78
2022/03/23 03:18:35;;;;;;;10.13;4.15;;;;;;;2.04;49.74;101089.00;5092596;28;20055;-79
2022/03/23 03:21:06;;;;;;;16.10;4.65;;;;;;;2.18;49.99;101125.00;5091732;28;20052;-80
2022/03/23 03:23:35;;;;;;;8.68;3.88;;;;;;;2.17;49.72;101121.53;5093188;28;20047;-80
2022/03/23 03:26:05;;;;;;;8.00;4.25;;;;;;;2.23;49.90;101129.59;5092829;28;20132;-80
2022/03/23 03:28:33;;;;;;;8.18;4.35;;;;;;;2.05;50.00;101095.06;5092976;28;20528;-78
2022/03/23 03:31:07;;;;;;;8.50;4.13;;;;;;;2.30;49.73;101136.00;5092819;28;20501;-79
2022/03/23 03:33:35;;;;;;;9.65;4.32;;;;;;;2.31;49.69;101114.56;5093164;28;20051;-80
2022/03/23 03:36:03;;;;;;;8.73;4.22;;;;;;;2.38;49.87;101115.81;5092848;28;20055;-80
2022/03/23 03:38:31;;;;;;;7.78;4.30;;;;;;;2.43;49.63;101116.94;5092595;28;20483;-79
2022/03/23 03:40:58;;;;;;;8.80;4.30;;;;;;;2.50;49.49;101126.81;5092797;28;20055;-80
2022/03/23 03:43:26;;;;;;;8.65;4.65;;;;;;;2.56;49.12;101119.44;5093299;28;20113;-79
2022/03/23 03:45:53;;;;;;;12.30;4.05;;;;;;;2.43;49.45;101080.81;5092735;28;20468;-79
2022/03/23 03:48:21;;;;;;;10.32;4.25;;;;;;;2.65;49.12;101098.41;5092706;28;20089;-80
2022/03/23 03:50:48;;;;;;;9.00;3.88;;;;;;;2.75;48.98;101105.81;5083959;28;20478;-79
2022/03/23 03:53:15;;;;;;;8.70;4.20;;;;;;;2.71;48.48;101092.66;5071266;28;20060;-78
2022/03/23 03:55:43;;;;;;;11.10;4.15;;;;;;;2.87;48.31;101098.75;5072308;28;20423;-80
2022/03/23 03:58:10;;;;;;;8.70;4.30;;;;;;;2.83;48.41;101085.59;5072852;28;20060;-79
2022/03/23 04:00:37;;;;;;;5.65;3.80;;;;;;;2.93;48.35;101089.59;5073265;28;20048;-79
2022/03/23 04:03:05;;;;;;;9.68;4.38;;;;;;;3.03;48.41;101094.41;5076972;28;20052;-80
2022/03/23 04:05:33;;;;;;;11.27;3.90;;;;;;;3.11;48.13;101098.28;5090911;28;20052;-79
2022/03/23 04:08:00;;;;;;;10.80;4.30;;;;;;;3.19;48.05;101094.44;5077615;28;20052;-80
2022/03/23 04:10:28;;;;;;;8.60;4.00;;;;;;;3.17;47.97;101100.31;5089727;28;20059;-78
2022/03/23 04:12:56;;;;;;;11.07;4.00;;;;;;;3.08;47.91;101073.22;5076506;28;20110;-79
2022/03/23 04:15:26;;;;;;;11.13;4.32;;;;;;;3.15;47.52;101063.19;5077010;28;20147;-80
2022/03/23 04:17:54;;;;;;;10.18;4.03;;;;;;;3.22;47.50;101052.38;5042877;28;20068;-80
2022/03/23 04:20:22;;;;;;;15.43;4.38;;;;;;;3.45;47.25;101088.03;5073812;28;20422;-80
2022/03/23 04:22:49;;;;;;;12.45;4.78;;;;;;;3.54;47.24;101072.13;5073154;28;20561;-81
2022/03/23 04:25:18;;;;;;;12.35;4.20;;;;;;;3.79;46.93;101092.34;5073107;28;20084;-82
2022/03/23 04:27:57;;;;;;;12.00;4.57;;;;;;;3.78;46.52;101071.56;5072609;28;20066;-81
2022/03/23 04:30:30;;;;;;;12.63;5.20;;;;;;;3.97;46.56;101094.06;5073729;28;20049;-81
2022/03/23 04:32:58;;;;;;;12.77;5.22;;;;;;;4.11;46.11;101090.47;5074114;28;20059;-81
2022/03/23 04:35:26;;;;;;;14.77;4.90;;;;;;;4.14;46.03;101079.38;5077273;28;20058;-79
2022/03/23 04:37:54;;;;;;;10.40;4.82;;;;;;;4.31;45.93;101099.19;5086677;28;20074;-79
2022/03/23 04:40:22;;;;;;;15.02;5.07;;;;;;;4.31;45.28;101079.38;5095726;28;20063;-80
2022/03/23 04:42:49;;;;;;;11.25;6.15;;;;;;;4.61;45.65;101084.22;5099314;28;20025;-80
2022/03/23 04:45:17;;;;;;;17.40;5.57;;;;;;;4.73;45.17;101083.91;5087752;28;20068;-79
2022/03/23 04:47:44;;;;;;;13.25;5.35;;;;;;;4.81;44.61;101077.38;5076564;28;20143;-80
2022/03/23 04:50:12;;;;;;;14.85;4.60;;;;;;;4.98;44.77;101078.16;5075185;28;20143;-80
2022/03/23 04:52:42;;;;;;;18.65;5.55;;;;;;;5.16;44.32;101092.75;5075345;28;20048;-79
2022/03/23 04:55:11;;;;;;;19.55;5.40;;;;;;;5.27;44.25;101075.97;5073708;28;20246;-80
2022/03/23 04:57:39;;;;;;;12.57;5.05;;;;;;;5.44;44.11;101082.81;5074901;28;20472;-80
2022/03/23 05:00:13;;;;;;;21.15;5.90;;;;;;;5.10;43.70;101010.50;5074751;28;20437;-80
2022/03/23 05:02:44;;;;;;;12.45;5.15;;;;;;;5.65;43.33;101075.03;5073860;28;20056;-81
2022/03/23 05:05:12;;;;;;;12.63;5.25;;;;;;;5.86;42.90;101087.16;5074681;28;20055;-79
2022/03/23 05:07:47;;;;;;;13.38;5.78;;;;;;;5.88;42.49;101078.63;5075317;28;20052;-81
2022/03/23 05:10:14;;;;;;;10.73;5.22;;;;;;;5.92;42.49;101057.16;5075193;28;20052;-78
2022/03/23 05:12:45;;;;;;;13.70;4.78;;;;;;;6.18;42.45;101079.84;5074639;28;20445;-81
2022/03/23 05:15:14;;;;;;;15.88;5.03;;;;;;;6.15;42.11;101067.63;5074781;28;20057;-80
2022/03/23 05:17:42;;;;;;;20.33;5.72;;;;;;;6.02;42.39;101045.47;5075467;28;20429;-80
2022/03/23 05:20:09;;;;;;;11.10;5.00;;;;;;;6.39;41.88;101072.03;5082115;28;20410;-80
2022/03/23 05:22:37;;;;;;;16.98;6.88;;;;;;;6.53;41.52;101076.06;5082049;28;20498;-80
2022/03/23 05:25:06;;;;;;;11.48;5.10;;;;;;;6.50;41.15;101066.44;5096958;28;20056;-80
2022/03/23 05:27:35;;;;;;;13.18;5.30;;;;;;;6.66;41.15;101085.19;5079169;28;20074;-79
2022/03/23 05:30:04;;;;;;;13.38;5.47;;;;;;;6.67;41.21;101061.91;5095933;28;20105;-82
2022/03/23 05:32:31;;;;;;;17.10;5.43;;;;;;;6.89;40.75;101076.59;5098935;28;20082;-79
2022/03/23 05:34:58;;;;;;;12.38;5.97;;;;;;;6.72;40.54;101036.97;5084908;28;20152;-80
2022/03/23 05:37:25;;;;;;;14.45;5.60;;;;;;;7.04;40.44;101058.09;5081270;28;20076;-80
2022/03/23 05:39:52;;;;;;;12.55;5.18;;;;;;;7.03;40.14;101030.31;5077552;28;20048;-80
2022/03/23 05:42:19;;;;;;;19.85;6.63;;;;;;;7.24;40.13;101077.00;5075567;28;20052;-79
2022/03/23 05:44:46;;;;;;;16.58;5.78;;;;;;;7.27;40.15;101065.81;5075486;28;20076;-79
2022/03/23 05:47:13;;;;;;;17.92;5.90;;;;;;;7.41;39.76;101067.19;5075340;28;20063;-78
2022/03/23 05:49:40;;;;;;;15.82;6.22;;;;;;;7.59;39.46;101062.66;5074745;28;20048;-81
2022/03/23 05:52:07;;;;;;;17.23;6.63;;;;;;;7.73;39.50;101057.03;5073776;28;20048;-84
2022/03/23 05:54:37;;;;;;;17.30;6.82;;;;;;;7.62;39.33;101017.66;5075611;28;20094;-81
2022/03/23 05:57:04;;;;;;;20.08;6.53;;;;;;;7.94;39.14;101055.16;5073206;28;20094;-79
2022/03/23 05:59:31;;;;;;;18.67;6.15;;;;;;;8.03;38.82;101056.28;5075911;28;20056;-80
2022/03/23 06:01:59;;;;;;;12.05;5.97;;;;;;;8.08;38.71;101046.91;5073716;28;20498;-80
2022/03/23 06:04:40;;;;;;;15.98;6.40;;;;;;;8.02;38.33;101016.34;5074962;28;20056;-81
2022/03/23 06:07:07;;;;;;;12.73;5.15;;;;;;;8.21;38.35;101023.91;5075811;28;20060;-80
2022/03/23 06:09:35;;;;;;;14.85;5.85;;;;;;;8.34;37.92;101061.63;5077182;28;20056;-81
2022/03/23 06:12:05;;;;;;;14.18;5.57;;;;;;;8.31;38.32;101032.91;5079488;28;20083;-82
2022/03/23 06:14:34;;;;;;;12.40;5.40;;;;;;;8.32;38.06;101047.66;5074473;28;20067;-82
2022/03/23 06:17:06;;;;;;;14.30;5.60;;;;;;;8.14;38.07;101021.06;5076451;28;20052;-81
2022/03/23 06:19:33;;;;;;;10.73;5.18;;;;;;;8.09;38.22;100997.50;5074602;28;20053;-80
2022/03/23 06:22:00;;;;;;;16.27;6.05;;;;;;;8.34;37.89;101040.78;5083942;28;20071;-81
2022/03/23 06:24:27;;;;;;;15.55;6.03;;;;;;;8.41;38.00;101018.50;5076469;28;20045;-80
2022/03/23 06:26:54;;;;;;;12.13;5.32;;;;;;;8.56;37.77;101036.28;5075353;28;20502;-81
2022/03/23 06:29:21;;;;;;;13.98;5.30;;;;;;;8.64;37.56;101058.22;5076718;28;20486;-81
2022/03/23 06:31:48;;;;;;;16.92;5.00;;;;;;;8.72;37.28;101048.06;5079547;28;20075;-82
2022/03/23 06:34:15;;;;;;;18.30;5.65;;;;;;;8.84;37.14;101055.34;5083268;28;20055;-79
2022/03/23 06:36:42;;;;;;;13.13;5.28;;;;;;;8.78;37.15;101041.31;5078215;28;20052;-82
2022/03/23 06:39:09;;;;;;;11.20;5.13;;;;;;;8.46;36.92;100980.44;5075017;28;20083;-79
2022/03/23 06:41:36;;;;;;;12.60;4.80;;;;;;;8.44;36.84;100971.69;5080575;28;20076;-80
2022/03/23 06:44:05;;;;;;;13.13;5.93;;;;;;;8.73;36.34;100989.88;5076449;28;20143;-82
2022/03/23 06:46:31;;;;;;;11.00;5.65;;;;;;;9.15;36.29;101042.34;5074529;28;20065;-81
2022/03/23 06:48:58;;;;;;;15.82;5.90;;;;;;;9.28;36.86;101035.75;5075046;28;20506;-80
2022/03/23 06:51:26;;;;;;;12.23;5.55;;;;;;;9.41;36.43;101030.03;5075159;28;20112;-82
2022/03/23 06:53:53;;;;;;;18.15;8.90;;;;;;;9.49;36.49;101032.84;5073299;28;20048;-81
2022/03/23 06:56:20;;;;;;;17.65;7.38;;;;;;;9.61;35.99;101014.00;5071619;28;20501;-84
2022/03/23 06:58:47;;;;;;;19.52;7.32;;;;;;;9.62;35.50;101016.66;5079659;28;20502;-83
2022/03/23 07:01:13;;;;;;;13.75;6.50;;;;;;;9.75;35.38;101017.84;5082864;28;20207;-82
2022/03/23 07:03:41;;;;;;;12.57;6.22;;;;;;;9.74;35.08;101007.38;5078000;28;20053;-80
2022/03/23 07:06:08;;;;;;;11.45;5.80;;;;;;;9.74;34.92;100995.19;5077807;28;20056;-84
2022/03/23 07:11:21;;;;;;;14.82;5.55;;;;;;;9.82;34.26;100978.00;5075763;28;20056;-81
2022/03/23 07:13:48;;;;;;;15.35;5.25;;;;;;;9.84;34.54;100991.09;5081398;28;20036;-81
2022/03/23 07:16:14;;;;;;;9.00;5.00;;;;;;;9.89;34.30;101005.13;5097089;28;20036;-82
2022/03/23 07:19:07;;;;;;;15.55;5.40;;;;;;;9.37;34.75;100916.03;5092516;28;20151;-81
2022/03/23 07:21:46;;;;;;;12.93;4.63;;;;;;;9.27;34.00;100861.00;5094691;28;20048;-80
2022/03/23 07:24:13;;;;;;;7.80;4.40;;;;;;;10.05;34.08;101015.13;5095739;28;20050;-82
2022/03/23 07:26:40;;;;;;;17.63;4.13;;;;;;;10.04;34.18;100997.69;5094594;28;20047;-82
2022/03/23 07:29:31;;;;;;;15.23;4.63;;;;;;;10.06;34.16;101005.53;5094912;28;20048;-82
2022/03/23 07:31:58;;;;;;;11.93;4.00;;;;;;;10.16;33.79;100984.03;5092607;28;20463;-82
2022/03/23 07:34:27;;;;;;;10.02;4.50;;;;;;;10.13;33.96;100967.41;5093365;28;20051;-82
2022/03/23 07:36:54;;;;;;;11.70;4.18;;;;;;;10.34;33.56;101009.72;5092723;28;20094;-81
2022/03/23 07:39:23;;;;;;;9.73;3.70;;;;;;;10.26;33.06;100972.09;5091903;28;20406;-81
2022/03/23 07:41:52;;;;;;;12.48;4.47;;;;;;;10.34;32.93;100990.56;5091357;28;20052;-82
2022/03/23 07:44:32;;;;;;;10.18;3.17;;;;;;;10.32;33.20;101003.56;5104156;28;20048;-83
2022/03/23 07:47:19;;;;;;;5.45;3.50;;;;;;;10.00;33.06;100956.72;5104852;28;20058;-82
2022/03/23 07:49:46;;;;;;;16.00;3.75;;;;;;;9.89;33.43;100965.13;5093026;28;20040;-81
2022/03/23 07:52:13;;;;;;;20.48;10.05;;;;;;;10.10;33.36;100981.28;5093236;28;20059;-82
2022/03/23 07:54:40;;;;;;;6.35;2.97;;;;;;;10.01;33.44;100971.50;5092540;28;20131;-83
2022/03/23 07:57:07;;;;;;;10.85;3.05;;;;;;;9.86;33.08;100958.09;5093550;28;20040;-81
2022/03/23 07:59:34;;;;;;;7.47;3.00;;;;;;;9.64;33.34;100931.50;5093346;28;20481;-81
2022/03/23 08:02:01;;;;;;;5.57;3.50;;;;;;;9.73;33.13;100949.09;5092432;28;20494;-83
2022/03/23 08:04:28;;;;;;;10.85;3.88;;;;;;;9.60;33.33;100923.56;5094572;28;20131;-82
2022/03/23 08:06:57;;;;;;;12.45;3.90;;;;;;;9.73;33.10;100964.75;5096551;28;20052;-82
2022/03/23 08:09:24;;;;;;;12.57;3.78;;;;;;;9.77;33.39;100991.81;5078586;28;20560;-82
2022/03/23 08:11:52;;;;;;;9.88;3.60;;;;;;;9.54;33.15;100919.06;5097977;28;20109;-82
2022/03/23 08:14:34;;;;;;;9.73;4.03;;;;;;;9.70;33.23;100958.56;5096165;28;20064;-79
2022/03/23 08:17:08;;;;;;;9.85;5.03;;;;;;;9.57;34.10;100916.56;5096177;28;20463;-81
2022/03/23 08:19:40;;;;;;;12.13;5.55;;;;;;;9.83;34.09;100942.38;5098036;28;20055;-82
2022/03/23 08:22:07;;;;;;;18.35;5.50;;;;;;;10.11;33.59;100967.41;5065933;28;20048;-81
2022/03/23 08:24:34;;;;;;;21.10;5.72;;;;;;;10.06;33.74;100961.16;5095685;28;20106;-84
2022/03/23 08:27:03;;;;;;;10.93;5.55;;;;;;;9.95;33.81;100945.25;5096790;28;20505;-81
2022/03/23 08:29:30;;;;;;;12.32;5.10;;;;;;;10.04;34.12;100955.94;5095118;28;20147;-82
2022/03/23 08:31:57;;;;;;;11.68;5.50;;;;;;;9.88;33.59;100921.59;5094694;28;20440;-81
2022/03/23 08:34:25;;;;;;;10.60;5.20;;;;;;;9.86;33.94;100910.25;5097300;28;20058;-81
2022/03/23 08:36:52;;;;;;;14.52;5.68;;;;;;;9.95;33.95;100936.56;5095988;28;20424;-82
2022/03/23 08:39:19;;;;;;;14.38;5.10;;;;;;;10.12;34.24;100943.03;5096540;28;20055;-82
2022/03/23 08:41:46;;;;;;;16.10;5.03;;;;;;;10.18;33.19;100955.34;5097970;28;20044;-82
2022/03/23 08:44:13;;;;;;;17.13;5.40;;;;;;;10.24;33.54;100948.53;5098731;28;20100;-83
2022/03/23 08:46:41;;;;;;;22.08;5.53;;;;;;;10.20;33.36;100933.66;5100447;28;20052;-85
2022/03/23 08:49:09;;;;;;;8.65;4.95;;;;;;;9.77;33.46;100848.31;5096574;28;20059;-86
2022/03/23 08:51:35;;;;;;;15.48;5.25;;;;;;;10.00;33.58;100854.91;5095831;28;20044;-86
2022/03/23 08:54:04;;;;;;;17.83;5.35;;;;;;;10.36;33.23;100932.28;5097296;28;20060;-85
2022/03/23 08:56:31;;;;;;;11.60;5.63;;;;;;;10.55;32.89;100915.25;5095783;28;20052;-85
2022/03/23 08:58:59;;;;;;;11.52;4.80;;;;;;;10.63;32.66;100912.81;5097534;28;20044;-82
2022/03/23 09:01:26;;;;;;;11.05;4.65;;;;;;;10.35;33.02;100878.28;5095277;28;20058;-83
2022/03/23 09:03:55;;;;;;;10.50;4.82;;;;;;;10.55;32.90;100896.97;5095256;28;20089;-85
2022/03/23 09:06:22;;;;;;;13.40;4.93;;;;;;;10.32;32.43;100851.22;5094452;28;20047;-85
2022/03/23 09:08:52;;;;;;;15.98;5.22;;;;;;;10.28;32.86;100836.28;5047379;28;20071;-85
2022/03/23 09:11:29;;;;;;;13.63;4.68;;;;;;;10.60;32.47;100886.59;5095781;28;20474;-85
2022/03/23 09:13:57;;;;;;;9.07;4.05;;;;;;;10.63;32.54;100878.84;5095110;28;20052;-84
2022/03/23 09:16:24;;;;;;;14.77;3.95;;;;;;;10.59;32.01;100877.00;5094892;28;20075;-85
2022/03/23 09:18:51;;;;;;;14.57;4.85;;;;;;;10.23;32.03;100794.44;5095871;28;20087;-83
2022/03/23 09:21:21;;;;;;;10.38;4.50;;;;;;;10.65;31.77;100878.00;5095691;28;20066;-86
2022/03/23 09:23:48;;;;;;;15.18;4.68;;;;;;;10.54;31.96;100849.91;5092334;28;20490;-87
2022/03/23 09:26:17;;;;;;;12.57;5.25;;;;;;;10.83;31.41;100900.13;5083051;28;20056;-86
2022/03/23 09:28:44;;;;;;;13.93;5.88;;;;;;;10.67;31.50;100849.31;5085543;28;20083;-85
2022/03/23 09:31:11;;;;;;;11.57;4.57;;;;;;;11.05;31.45;100890.94;5082919;28;20387;-85
2022/03/23 09:33:39;;;;;;;9.98;4.55;;;;;;;11.13;31.40;100881.50;5080194;28;20045;-86
2022/03/23 09:37:47;;;;;;;16.88;6.25;;;;;;;11.24;30.75;100872.06;5081578;28;20052;-87
2022/03/23 09:38:53;;;;;;;30.48;8.80;;;;;;;11.00;30.50;100854.25;5053831;28;20406;-84
2022/03/23 09:41:22;;;;;;;15.27;6.50;;;;;;;10.97;30.72;100863.75;5058148;28;20049;-85
2022/03/23 09:43:50;;;;;;;20.58;9.13;;;;;;;10.93;30.40;100838.44;5055405;28;20087;-87
2022/03/23 09:46:20;;;;;;;12.82;4.75;;;;;;;10.78;30.19;100820.75;5056256;28;20411;-89
2022/03/23 09:48:49;;;;;;;;;;;;;;;10.98;31.23;100858.56;5112105;28;20055;-88
2022/03/23 09:51:24;;;;;;;16.05;5.88;;;;;;;10.88;30.10;100808.72;5119072;28;19968;-91
2022/03/23 09:53:54;;;;;;;14.82;5.43;;;;;;;11.20;30.23;100858.94;5078524;28;20098;-83
2022/03/23 09:56:21;;;;;;;14.38;4.93;;;;;;;11.20;30.27;100862.41;5094716;28;20086;-83
2022/03/23 09:58:48;;;;;;;10.82;4.40;;;;;;;11.08;30.30;100849.16;5094764;28;20058;-87
2022/03/23 10:01:27;;;;;;;15.30;4.97;;;;;;;11.07;30.16;100842.16;5093281;28;20048;-84
2022/03/23 10:04:12;;;;;;;9.40;4.63;;;;;;;11.18;30.11;100837.97;5077282;28;20095;-85
2022/03/23 10:06:55;;;;;;;18.73;6.35;;;;;;;10.53;30.28;100725.38;5089914;28;20136;-83
2022/03/23 10:09:25;;;;;;;13.00;5.05;;;;;;;11.34;30.41;100833.03;5092075;28;20528;-85
2022/03/23 10:12:23;;;;;;;11.23;4.65;;;;;;;11.35;30.07;100824.31;5093231;28;20551;-81
2022/03/23 10:15:29;;;;;;;11.48;4.43;;;;;;;11.34;30.08;100817.31;5094321;28;20072;-84
2022/03/23 10:18:21;;;;;;;12.75;4.45;;;;;;;11.41;29.92;100817.41;5076066;28;20051;-84
2022/03/23 10:20:48;;;;;;;11.43;4.45;;;;;;;11.42;29.46;100805.22;5093170;28;20088;-83
2022/03/23 10:23:21;;;;;;;13.60;4.75;;;;;;;11.50;28.91;100806.22;5092722;28;20097;-82
2022/03/23 10:25:49;;;;;;;13.25;4.88;;;;;;;11.47;29.49;100809.66;5093796;28;20087;-84
2022/03/23 10:28:17;;;;;;;16.42;5.47;;;;;;;11.24;29.51;100775.31;5091243;28;20056;-81
2022/03/23 10:30:46;;;;;;;9.95;4.70;;;;;;;11.26;29.23;100776.22;5093357;28;20047;-81
2022/03/23 10:33:20;;;;;;;10.52;4.53;;;;;;;11.56;28.79;100795.84;5093546;28;20063;-82
2022/03/23 10:35:47;;;;;;;11.88;4.40;;;;;;;11.59;28.84;100785.41;5094450;28;20048;-80
2022/03/23 10:38:21;;;;;;;10.20;4.75;;;;;;;11.67;28.73;100762.84;5094212;28;20052;-80
2022/03/23 10:40:51;;;;;;;8.73;4.05;;;;;;;11.74;28.31;100758.56;5093855;28;20429;-79
2022/03/23 10:43:22;;;;;;;11.90;4.38;;;;;;;11.90;27.72;100780.63;5091831;28;20417;-81
2022/03/23 10:45:49;;;;;;;7.75;4.30;;;;;;;11.86;27.13;100763.09;5093895;28;20047;-80
2022/03/23 10:48:18;;;;;;;14.25;5.03;;;;;;;11.97;26.87;100771.09;5092085;28;20079;-81
2022/03/23 10:50:57;;;;;;;10.10;4.30;;;;;;;12.02;27.03;100759.84;5093181;28;20067;-80
2022/03/23 10:53:31;;;;;;;11.05;4.63;;;;;;;12.22;26.80;100778.38;5093149;28;20059;-83
2022/03/23 10:55:59;;;;;;;11.52;4.78;;;;;;;12.23;27.42;100767.03;5093384;28;20044;-82
2022/03/23 10:58:28;;;;;;;10.43;4.78;;;;;;;12.25;27.52;100769.69;5093100;28;20052;-81
2022/03/23 11:01:06;;;;;;;9.10;4.10;;;;;;;12.15;26.44;100762.56;5093701;28;20051;-80
2022/03/23 11:03:39;;;;;;;13.65;4.05;;;;;;;12.03;26.30;100745.00;5092639;28;20060;-81
2022/03/23 11:06:14;;;;;;;9.48;4.15;;;;;;;12.09;26.12;100745.06;5094822;28;20048;-81
2022/03/23 11:08:43;;;;;;;16.40;5.90;;;;;;;12.32;26.29;100747.03;5094176;28;20051;-80
2022/03/23 11:16:40;;;;;;;12.85;4.90;;;;;;;11.97;26.63;100703.03;5093983;28;20390;-79
2022/03/23 11:19:19;;;;;;;7.65;4.20;;;;;;;12.23;26.57;100737.34;5092549;28;20475;-81
2022/03/23 11:22:09;;;;;;;7.45;4.60;;;;;;;12.26;26.16;100738.28;5091663;28;20087;-81
2022/03/23 11:24:47;;;;;;;10.75;4.88;;;;;;;12.08;25.70;100745.91;5091746;28;20084;-81
2022/03/23 11:27:17;;;;;;;9.77;5.05;;;;;;;12.12;25.45;100744.22;5092742;28;20491;-81
2022/03/23 11:29:46;;;;;;;16.17;5.50;;;;;;;12.07;25.20;100713.63;5092723;28;20052;-81
2022/03/23 11:32:15;;;;;;;15.27;5.50;;;;;;;12.16;25.12;100723.31;5093375;28;20094;-80
2022/03/23 11:34:48;;;;;;;14.80;5.43;;;;;;;12.17;25.12;100726.81;5093403;28;20079;-80
2022/03/23 11:37:19;;;;;;;10.10;5.82;;;;;;;11.90;25.07;100681.13;5092659;28;20055;-80
2022/03/23 11:39:46;;;;;;;13.38;6.00;;;;;;;11.86;25.50;100684.56;5094025;28;20052;-80
2022/03/23 11:42:14;;;;;;;18.23;7.43;;;;;;;12.08;25.25;100707.50;5097013;28;20064;-80
2022/03/23 11:44:43;;;;;;;19.50;7.25;;;;;;;12.23;24.98;100719.88;5096987;28;20517;-79
2022/03/23 11:47:48;;;;;;;13.25;5.47;;;;;;;12.24;24.82;100712.94;5096699;28;20048;-79
2022/03/23 11:50:32;;;;;;;15.77;6.20;;;;;;;12.18;24.74;100711.13;5095504;28;20095;-80
2022/03/23 11:53:08;;;;;;;12.60;5.53;;;;;;;12.02;24.50;100696.09;5096691;28;20135;-80
2022/03/23 11:55:39;;;;;;;13.23;5.93;;;;;;;12.04;24.92;100695.25;5096624;28;20100;-81